KISN/ISN METAR and TAF weather

Enter ICAO airport designator
Station Type Date Time Source
KISN METAR 2019/07/17 18:52 UTC NOAA

KISN 171852Z AUTO 23008KT 150V260 10SM SCT046 BKN060 27/17 A2975 RMK AO2 SLP063 T02720172


Station Type Date Time Source
KISN Decoded METAR 2019/07/17 18:52 UTC NOAA

SLOULIN FIELD INTERNATIONAL AIRPORT, ND, United States (KISN) 48-11N 103-39W 579M
Jul 17, 2019 - 02:52 PM EDT / 2019.07.17 1852 UTC
Wind: from the SW (230 degrees) at 9 MPH (8 KT) (direction variable):0
Visibility: 10 mile(s):0
Sky conditions: mostly cloudy
Temperature: 81.0 F (27.2 C)
Dew Point: 63.0 F (17.2 C)
Relative Humidity: 54%
Pressure (altimeter): 29.75 in. Hg (1007 hPa)
ob: KISN 171852Z AUTO 23008KT 150V260 10SM SCT046 BKN060 27/17 A2975 RMK AO2 SLP063 T02720172
cycle: 19

Station Type Date Time Source
KISN TAF 2019/07/17 18:36 UTC NOAA

TAF KISN 171735Z 1718/1818 17005KT P6SM FEW050
FM172000 27008KT P6SM FEW060 BKN200
FM180200 23005KT P6SM FEW080 SCT250
FM180800 21005KT P6SM FEW070 SCT120
FM181400 26010G19KT P6SM SKC

Example: see airport list